Time;durP1;ratioP1;P1;durP2;ratioP2;P2;SDS_P1;SDS_P2;PMS_P1;PMS_P2;Temp;Humidity;BMP_temperature;BMP_pressure;BME280_temperature;BME280_humidity;BME280_pressure;Samples;Min_cycle;Max_cycle;Signal;HPM_P1;HPM_P2
2022/07/03 00:01:47;;;;;;;4.60;2.85;;;;;;;23.03;41.63;100154.03;1754786;80;20950;-60
2022/07/03 00:04:14;;;;;;;3.62;2.90;;;;;;;23.01;41.57;100148.80;1745426;80;21507;-60
2022/07/03 00:06:40;;;;;;;5.17;3.00;;;;;;;23.01;41.66;100143.44;1755425;80;21565;-60
2022/07/03 00:09:07;;;;;;;5.90;2.80;;;;;;;23.00;41.62;100147.58;1754106;80;21486;-60
2022/07/03 00:11:35;;;;;;;4.83;2.35;;;;;;;22.99;41.67;100143.22;1755552;80;21888;-60
2022/07/03 00:14:01;;;;;;;2.67;2.47;;;;;;;22.94;41.69;100139.58;1755092;80;21619;-60
2022/07/03 00:16:28;;;;;;;3.80;2.72;;;;;;;22.90;41.78;100134.13;1738744;80;20966;-61
2022/07/03 00:18:55;;;;;;;5.08;2.62;;;;;;;22.85;41.91;100131.87;1751278;80;21061;-61
2022/07/03 00:21:59;;;;;;;7.12;3.00;;;;;;;22.78;41.98;100134.72;1758297;80;20974;-60
2022/07/03 00:24:45;;;;;;;4.95;2.50;;;;;;;22.72;42.15;100127.21;1757305;80;21503;-60
2022/07/03 00:27:11;;;;;;;3.27;2.33;;;;;;;22.72;42.34;100132.07;1739395;80;21443;-61
2022/07/03 00:29:41;;;;;;;3.37;2.50;;;;;;;22.83;42.24;100127.12;1744778;80;21515;-60
2022/07/03 00:32:10;;;;;;;4.05;2.30;;;;;;;22.85;42.22;100122.95;1731064;80;21546;-60
2022/07/03 00:34:39;;;;;;;4.85;2.60;;;;;;;22.87;42.32;100127.22;1737571;80;21592;-61
2022/07/03 00:37:10;;;;;;;2.75;2.55;;;;;;;22.84;42.29;100119.43;1748906;81;21558;-61
2022/07/03 00:39:40;;;;;;;5.03;2.83;;;;;;;22.86;42.22;100118.80;1748440;81;21479;-60
2022/07/03 00:42:07;;;;;;;3.77;3.12;;;;;;;22.83;42.21;100116.41;1740275;81;21514;-60
2022/07/03 00:44:53;;;;;;;5.12;2.70;;;;;;;22.76;42.31;100113.89;1742814;80;21531;-60
2022/07/03 00:47:26;;;;;;;3.50;2.62;;;;;;;22.73;42.33;100115.48;1736868;81;21515;-60
2022/07/03 00:49:59;;;;;;;3.83;2.92;;;;;;;22.70;42.32;100114.44;1738516;80;21739;-60
2022/07/03 00:52:26;;;;;;;4.83;2.37;;;;;;;22.76;42.07;100117.08;1744352;81;21416;-60
2022/07/03 00:54:56;;;;;;;6.85;2.20;;;;;;;22.70;42.00;100112.59;1739174;81;21585;-60
2022/07/03 00:57:25;;;;;;;4.58;2.55;;;;;;;22.69;42.08;100114.06;1732615;81;21445;-60
2022/07/03 00:59:53;;;;;;;3.10;2.45;;;;;;;22.63;42.15;100118.62;1744693;81;21002;-60
2022/07/03 01:02:47;;;;;;;3.80;2.87;;;;;;;22.58;42.10;100108.77;1751280;81;21803;-61
2022/07/03 01:05:37;;;;;;;3.47;2.40;;;;;;;22.53;42.26;100115.88;1745925;81;21658;-60
2022/07/03 01:08:36;;;;;;;9.18;2.83;;;;;;;22.53;42.20;100115.88;1741455;81;21560;-60
2022/07/03 01:11:41;;;;;;;3.22;2.27;;;;;;;22.50;42.27;100110.77;1752767;81;21562;-61
2022/07/03 01:14:45;;;;;;;6.47;2.87;;;;;;;22.47;42.16;100113.23;1682246;83;21584;-61
2022/07/03 01:17:29;;;;;;;5.85;2.70;;;;;;;22.45;42.31;100114.33;1681473;83;21771;-60
2022/07/03 01:20:01;;;;;;;7.72;3.08;;;;;;;22.46;42.40;100110.68;1679535;83;21765;-65
2022/07/03 01:22:36;;;;;;;4.40;3.20;;;;;;;22.43;42.30;100109.09;1692324;83;21421;-60
2022/07/03 01:25:25;;;;;;;3.05;2.80;;;;;;;22.43;42.11;100112.27;1680842;83;21566;-59
2022/07/03 01:28:12;;;;;;;3.75;2.83;;;;;;;22.42;42.07;100105.23;1677419;83;21539;-61
2022/07/03 01:30:51;;;;;;;6.60;2.87;;;;;;;22.51;41.76;100102.61;1673689;83;21812;-60
2022/07/03 01:33:25;;;;;;;6.85;2.72;;;;;;;22.49;41.75;100095.20;1689804;83;21481;-59
2022/07/03 01:36:05;;;;;;;5.47;2.50;;;;;;;22.52;41.86;100099.44;1680147;83;21094;-60
2022/07/03 01:38:37;;;;;;;2.90;2.70;;;;;;;22.49;41.85;100097.87;1679288;83;21422;-61
2022/07/03 01:41:07;;;;;;;3.00;2.60;;;;;;;22.53;41.91;100093.95;1680978;83;21639;-59
2022/07/03 01:43:38;;;;;;;4.05;2.47;;;;;;;22.51;42.06;100099.94;1669175;84;21773;-59
2022/07/03 01:46:06;;;;;;;3.20;2.55;;;;;;;22.50;41.85;100102.23;1676819;83;21505;-61
2022/07/03 01:48:33;;;;;;;3.70;2.62;;;;;;;22.47;41.88;100093.14;1687824;83;21423;-61
2022/07/03 01:51:00;;;;;;;3.47;2.30;;;;;;;22.49;41.76;100101.02;1676249;84;21456;-60
2022/07/03 01:53:29;;;;;;;5.47;2.65;;;;;;;22.46;42.00;100099.97;1682141;83;20963;-59
2022/07/03 01:55:57;;;;;;;3.17;2.58;;;;;;;22.45;42.23;100103.61;1683028;83;21805;-59
2022/07/03 01:58:24;;;;;;;5.87;2.52;;;;;;;22.49;41.83;100101.02;1675943;83;21539;-59
2022/07/03 02:01:04;;;;;;;2.60;2.33;;;;;;;22.54;41.89;100102.83;1681210;83;21492;-59
2022/07/03 02:03:33;;;;;;;3.27;2.72;;;;;;;22.53;41.85;100102.48;1687873;83;21431;-59
2022/07/03 02:06:11;;;;;;;4.60;2.77;;;;;;;22.56;41.64;100098.19;1682334;83;21401;-58
2022/07/03 02:08:52;;;;;;;5.17;2.50;;;;;;;22.57;41.82;100095.88;1688401;83;21873;-59
2022/07/03 02:11:22;;;;;;;3.60;2.35;;;;;;;22.61;41.84;100094.63;1677421;83;21579;-61
2022/07/03 02:13:54;;;;;;;4.70;2.47;;;;;;;22.63;41.91;100101.20;1670004;83;21553;-60
2022/07/03 02:16:24;;;;;;;4.22;2.52;;;;;;;22.68;41.95;100104.34;1654327;84;21532;-60
2022/07/03 02:18:58;;;;;;;5.65;2.40;;;;;;;22.65;41.73;100103.25;1674070;83;21613;-60
2022/07/03 02:21:28;;;;;;;6.12;2.80;;;;;;;22.66;41.35;100103.59;1663570;84;21913;-60
2022/07/03 02:24:19;;;;;;;5.78;2.70;;;;;;;22.75;41.22;100102.80;1663750;84;21078;-59
2022/07/03 02:27:04;;;;;;;4.03;2.60;;;;;;;22.81;41.04;100107.66;1673273;83;21483;-58
2022/07/03 02:29:36;;;;;;;7.62;2.60;;;;;;;22.84;40.91;100104.69;1672945;83;21453;-59
2022/07/03 02:32:06;;;;;;;3.05;2.45;;;;;;;22.81;40.69;100100.08;1675598;83;21621;-59
2022/07/03 02:34:34;;;;;;;3.35;2.77;;;;;;;22.80;40.65;100107.28;1661997;83;21794;-60
2022/07/03 02:37:15;;;;;;;7.15;2.95;;;;;;;22.78;40.66;100101.20;1666651;83;20983;-58
2022/07/03 02:39:50;;;;;;;6.08;3.00;;;;;;;22.81;40.55;100104.97;1667702;83;21020;-59
2022/07/03 02:42:43;;;;;;;10.38;3.00;;;;;;;22.72;40.86;100095.05;1655928;84;21513;-58
2022/07/03 02:45:10;;;;;;;5.70;3.30;;;;;;;22.79;40.71;100098.87;1664282;83;21608;-59
2022/07/03 02:47:47;;;;;;;;;;;;;;;22.81;40.74;100092.91;1677306;83;21738;-59
2022/07/03 02:50:19;;;;;;;9.80;2.92;;;;;;;22.83;40.91;100094.09;1660224;84;20204;-57
2022/07/03 02:53:06;;;;;;;5.60;2.87;;;;;;;22.73;40.85;100088.69;1660790;83;21504;-58
2022/07/03 02:55:45;;;;;;;4.15;3.05;;;;;;;22.79;40.94;100089.98;1671284;83;28700;-59
2022/07/03 02:58:47;;;;;;;5.40;3.50;;;;;;;22.84;40.85;100089.10;1673918;83;21521;-59
2022/07/03 03:01:34;;;;;;;4.60;3.35;;;;;;;22.87;40.84;100088.34;1662047;84;21811;-58
2022/07/03 03:04:27;;;;;;;;;;;;;;;22.93;40.77;100085.13;1679712;83;21566;-59
2022/07/03 03:06:57;;;;;;;5.37;3.10;;;;;;;23.02;40.76;100087.50;1671756;83;20166;-59
2022/07/03 03:09:36;;;;;;;4.40;2.77;;;;;;;23.09;40.42;100087.35;1661717;83;21470;-59
2022/07/03 03:12:05;;;;;;;4.87;3.30;;;;;;;23.13;40.42;100087.90;1665364;84;21620;-59
2022/07/03 03:14:44;;;;;;;4.47;3.08;;;;;;;23.22;40.28;100089.77;1672062;83;21782;-59
2022/07/03 03:17:18;;;;;;;8.10;3.20;;;;;;;23.31;40.16;100084.09;1664657;83;21049;-59
2022/07/03 03:19:51;;;;;;;4.47;2.20;;;;;;;23.42;40.07;100080.45;1659678;83;21101;-60
2022/07/03 03:23:01;;;;;;;8.35;2.87;;;;;;;23.50;40.07;100077.92;1593986;87;21598;-59
2022/07/03 03:25:28;;;;;;;7.22;2.67;;;;;;;23.54;40.04;100079.33;1673616;83;21496;-58
2022/07/03 03:27:56;;;;;;;4.55;2.37;;;;;;;23.58;39.89;100077.22;1667813;83;21787;-59
2022/07/03 03:30:23;;;;;;;4.55;2.20;;;;;;;23.65;39.56;100081.89;1649893;85;21500;-59
2022/07/03 03:32:50;;;;;;;4.55;2.40;;;;;;;23.73;39.64;100082.53;1661961;83;21627;-58
2022/07/03 03:35:17;;;;;;;2.75;2.30;;;;;;;23.76;39.67;100070.19;1659073;83;21051;-59
2022/07/03 03:37:48;;;;;;;4.42;2.27;;;;;;;23.95;39.54;100079.27;1653406;84;21548;-59
2022/07/03 03:40:15;;;;;;;4.03;2.52;;;;;;;24.01;39.42;100083.56;1672002;83;22104;-58
2022/07/03 03:42:42;;;;;;;3.08;2.47;;;;;;;24.14;39.39;100087.81;1666367;83;21521;-58
2022/07/03 03:45:09;;;;;;;3.27;2.17;;;;;;;24.25;39.10;100087.66;1657367;83;21485;-58
2022/07/03 03:47:36;;;;;;;6.33;1.95;;;;;;;24.28;38.98;100090.08;1673662;83;21556;-59
2022/07/03 03:50:04;;;;;;;2.27;1.67;;;;;;;24.40;38.89;100090.76;1674440;83;21630;-59
2022/07/03 03:52:32;;;;;;;5.10;2.12;;;;;;;24.58;38.66;100093.09;1654190;85;22194;-58
2022/07/03 03:54:58;;;;;;;4.37;1.87;;;;;;;24.66;38.58;100093.70;1664648;83;21086;-59
2022/07/03 03:57:25;;;;;;;6.85;2.10;;;;;;;24.79;38.42;100096.92;1670075;83;21448;-60
2022/07/03 03:59:52;;;;;;;3.20;1.92;;;;;;;24.93;38.60;100098.78;1666048;83;21504;-59
2022/07/03 04:02:19;;;;;;;3.47;2.12;;;;;;;25.09;39.18;100096.31;1663339;83;21541;-58
2022/07/03 04:04:46;;;;;;;4.92;2.05;;;;;;;25.16;39.07;100093.36;1667065;83;21813;-59
2022/07/03 04:07:13;;;;;;;5.70;2.12;;;;;;;25.31;38.25;100095.09;1664251;83;21433;-59
2022/07/03 04:09:39;;;;;;;5.78;2.15;;;;;;;25.31;38.25;100095.09;1676165;83;21066;-59
2022/07/03 04:12:07;;;;;;;3.90;1.65;;;;;;;25.47;38.07;100096.27;1665945;83;21634;-58
2022/07/03 04:14:35;;;;;;;5.17;1.92;;;;;;;25.62;37.74;100095.62;1663640;83;21414;-59
2022/07/03 04:17:02;;;;;;;6.85;2.33;;;;;;;25.77;37.18;100078.95;1661784;84;21758;-59
2022/07/03 04:19:30;;;;;;;6.20;1.70;;;;;;;25.85;37.18;100084.40;1669812;83;21488;-58
2022/07/03 04:21:57;;;;;;;5.47;1.87;;;;;;;25.85;37.18;100084.40;1665359;83;20976;-59
2022/07/03 04:24:24;;;;;;;6.53;2.33;;;;;;;26.16;38.09;100079.98;1668747;83;21525;-58
2022/07/03 04:26:51;;;;;;;5.55;2.00;;;;;;;26.16;38.09;100079.98;1668596;83;21528;-59
2022/07/03 04:29:17;;;;;;;3.25;2.22;;;;;;;26.41;39.03;100076.98;1662711;84;22023;-59
2022/07/03 04:31:44;;;;;;;5.53;2.20;;;;;;;26.41;39.03;100076.98;1637185;85;21487;-59
2022/07/03 04:34:12;;;;;;;2.40;2.20;;;;;;;26.54;39.06;100069.33;1657616;83;21559;-58
2022/07/03 04:36:40;;;;;;;3.65;2.02;;;;;;;26.61;39.26;100066.86;1670595;83;21520;-58
2022/07/03 04:39:07;;;;;;;4.80;1.92;;;;;;;26.80;39.10;100067.13;1682059;83;21521;-58
2022/07/03 04:41:33;;;;;;;3.22;2.25;;;;;;;26.80;39.10;100067.13;1664147;84;21863;-58
2022/07/03 04:44:00;;;;;;;3.02;1.65;;;;;;;26.98;39.09;100069.77;1631334;85;21617;-59
2022/07/03 04:46:27;;;;;;;3.67;1.98;;;;;;;27.11;37.88;100064.75;1669489;83;21536;-58
2022/07/03 04:48:53;;;;;;;4.22;2.65;;;;;;;27.11;37.88;100064.75;1633257;85;21561;-58
2022/07/03 04:51:20;;;;;;;4.65;1.80;;;;;;;27.18;38.06;100066.28;1672759;83;21586;-59
2022/07/03 04:53:46;;;;;;;3.20;2.00;;;;;;;27.21;37.21;100065.13;1677109;83;22027;-59
2022/07/03 04:56:13;;;;;;;2.30;1.98;;;;;;;27.27;36.86;100065.85;1662420;84;21531;-58
2022/07/03 04:58:39;;;;;;;1.95;1.82;;;;;;;27.33;36.70;100059.30;1656829;83;21635;-59
2022/07/03 05:01:06;;;;;;;6.55;1.65;;;;;;;27.47;36.55;100067.78;1668435;83;21568;-58
2022/07/03 05:03:32;;;;;;;3.37;1.77;;;;;;;27.46;36.05;100063.38;1660293;84;21501;-58
2022/07/03 05:05:59;;;;;;;3.17;1.87;;;;;;;27.62;36.25;100059.88;1667043;83;21748;-58
2022/07/03 05:08:26;;;;;;;3.23;1.87;;;;;;;27.69;35.40;100051.42;1673829;83;21519;-58
2022/07/03 05:10:52;;;;;;;5.25;2.12;;;;;;;27.75;34.80;100053.48;1667446;83;21598;-59
2022/07/03 05:13:19;;;;;;;4.33;2.17;;;;;;;27.87;35.14;100063.45;1670460;83;21082;-59
2022/07/03 05:15:46;;;;;;;2.53;1.70;;;;;;;27.99;34.72;100058.58;1668640;83;20968;-58
2022/07/03 05:18:13;;;;;;;3.20;1.47;;;;;;;28.10;35.09;100065.00;1662717;83;21976;-58
2022/07/03 05:20:41;;;;;;;4.28;1.98;;;;;;;28.21;34.87;100059.77;1669666;83;21582;-59
2022/07/03 05:23:08;;;;;;;1.75;1.65;;;;;;;28.19;34.54;100055.88;1666878;83;21501;-59
2022/07/03 05:25:34;;;;;;;4.92;1.70;;;;;;;28.29;34.93;100062.45;1668159;83;21075;-59
2022/07/03 05:28:02;;;;;;;2.67;1.87;;;;;;;28.30;34.59;100055.53;1651561;84;21543;-59
2022/07/03 05:30:29;;;;;;;2.87;1.90;;;;;;;28.37;34.65;100054.83;1658769;84;21845;-59
2022/07/03 05:32:55;;;;;;;3.10;1.50;;;;;;;28.47;34.99;100054.99;1662965;83;21468;-58
2022/07/03 05:35:22;;;;;;;4.85;1.95;;;;;;;28.67;35.05;100050.09;1671544;83;21630;-59
2022/07/03 05:37:50;;;;;;;4.42;1.75;;;;;;;28.88;35.21;100052.73;1669066;83;21504;-58
2022/07/03 05:40:17;;;;;;;4.60;1.82;;;;;;;28.98;34.42;100045.75;1672278;83;21666;-58
2022/07/03 05:42:43;;;;;;;3.00;1.67;;;;;;;29.06;34.27;100043.00;1661246;83;21871;-58
2022/07/03 05:45:10;;;;;;;4.40;1.90;;;;;;;29.24;34.39;100048.20;1656286;84;21543;-58
2022/07/03 05:49:40;;;;;;;4.47;2.33;;;;;;;27.95;37.15;100040.02;1774876;79;23091;-60
2022/07/03 05:52:07;;;;;;;3.00;1.50;;;;;;;29.28;33.78;100031.94;1737588;80;21503;-58
2022/07/03 05:54:34;;;;;;;3.15;1.77;;;;;;;29.46;32.73;100025.73;1752313;80;21787;-59
2022/07/03 05:57:01;;;;;;;3.08;2.08;;;;;;;29.51;32.13;100031.44;1739104;80;21530;-57
2022/07/03 05:59:27;;;;;;;3.52;2.00;;;;;;;29.39;32.35;100032.88;1746840;80;21456;-59
2022/07/03 06:01:54;;;;;;;7.87;1.65;;;;;;;29.35;31.50;100031.56;1745559;80;21489;-58
2022/07/03 06:04:21;;;;;;;4.70;1.77;;;;;;;29.49;31.55;100036.19;1738919;80;20974;-58
2022/07/03 06:06:47;;;;;;;6.67;1.77;;;;;;;29.62;31.67;100033.41;1738618;80;21603;-61
2022/07/03 06:09:14;;;;;;;2.85;2.08;;;;;;;29.70;31.72;100034.20;1708928;81;21530;-59
2022/07/03 06:11:41;;;;;;;1.90;1.62;;;;;;;29.75;30.96;100036.91;1713434;82;21509;-58
2022/07/03 06:14:07;;;;;;;2.50;1.50;;;;;;;29.71;31.46;100035.05;1708516;82;21589;-57
2022/07/03 06:16:35;;;;;;;2.50;1.92;;;;;;;29.78;31.27;100033.33;1700965;82;21625;-59
2022/07/03 06:19:02;;;;;;;2.87;1.70;;;;;;;29.80;31.08;100031.28;1694601;82;21904;-58
2022/07/03 06:21:29;;;;;;;3.12;1.77;;;;;;;29.78;30.80;100031.11;1699034;82;21434;-59
2022/07/03 06:23:55;;;;;;;3.83;1.50;;;;;;;29.67;30.50;100035.91;1696884;82;21443;-59
2022/07/03 06:26:22;;;;;;;1.95;1.42;;;;;;;29.54;30.75;100031.61;1705042;82;21593;-59
2022/07/03 06:28:49;;;;;;;3.50;1.60;;;;;;;29.51;30.28;100030.08;1700999;82;21590;-59
2022/07/03 06:31:15;;;;;;;4.40;2.02;;;;;;;29.56;30.54;100028.72;1707513;82;21550;-58
2022/07/03 06:33:42;;;;;;;4.87;1.87;;;;;;;29.87;31.27;100023.25;1694913;82;21610;-59
2022/07/03 06:36:08;;;;;;;5.50;1.77;;;;;;;30.04;31.06;100019.37;1705618;82;21498;-59
2022/07/03 06:38:35;;;;;;;2.50;1.82;;;;;;;30.11;31.03;100026.27;1705272;82;21575;-59
2022/07/03 06:41:01;;;;;;;7.92;2.12;;;;;;;30.11;30.88;100024.91;1694201;82;21069;-60
2022/07/03 06:43:28;;;;;;;9.20;2.30;;;;;;;30.19;30.94;100023.98;1698319;82;21841;-58
2022/07/03 06:45:55;;;;;;;3.55;2.52;;;;;;;30.22;30.63;100024.98;1705082;82;21522;-59
2022/07/03 06:48:21;;;;;;;2.33;2.00;;;;;;;30.21;30.22;100015.16;1701780;82;21603;-59
2022/07/03 06:50:48;;;;;;;4.65;1.92;;;;;;;30.24;30.59;100015.62;1693877;82;21566;-59
2022/07/03 06:53:15;;;;;;;9.33;2.50;;;;;;;30.35;30.75;100013.02;1692500;83;21503;-58
2022/07/03 06:55:41;;;;;;;2.55;1.70;;;;;;;30.44;30.44;100013.75;1685797;83;21839;-59
2022/07/03 06:58:08;;;;;;;3.33;2.40;;;;;;;30.52;31.27;100010.97;1690138;83;21495;-59
2022/07/03 07:00:38;;;;;;;3.50;2.50;;;;;;;30.63;31.28;100017.29;1693999;83;21460;-58
2022/07/03 07:03:05;;;;;;;2.67;2.42;;;;;;;30.71;30.17;100014.99;1690765;82;21637;-58
2022/07/03 07:05:31;;;;;;;4.33;2.62;;;;;;;30.77;29.73;100017.47;1681051;82;21566;-59
2022/07/03 07:07:58;;;;;;;6.80;2.85;;;;;;;30.89;29.72;100007.80;1686787;83;21821;-59
2022/07/03 07:10:25;;;;;;;4.45;2.50;;;;;;;31.07;29.99;100011.52;1692827;81;21578;-59
2022/07/03 07:12:51;;;;;;;4.15;1.98;;;;;;;31.13;29.37;100009.38;1682482;82;21525;-59
2022/07/03 07:15:18;;;;;;;6.75;2.92;;;;;;;31.28;29.85;100009.87;1685773;82;21635;-58
2022/07/03 07:17:45;;;;;;;;;;;;;;;31.41;29.88;100006.78;1695508;82;21572;-59
2022/07/03 07:20:12;;;;;;;4.58;2.50;;;;;;;31.48;28.89;100001.98;1694075;82;21922;-59
2022/07/03 07:22:39;;;;;;;4.28;2.70;;;;;;;31.49;29.21;100004.48;1686649;83;21444;-59
2022/07/03 07:25:07;;;;;;;4.95;2.33;;;;;;;31.55;28.81;100002.87;1694869;82;21561;-59
2022/07/03 07:27:34;;;;;;;3.62;2.37;;;;;;;31.50;29.01;100001.27;1682026;82;21549;-58
2022/07/03 07:30:00;;;;;;;6.05;2.85;;;;;;;31.48;29.39;100001.98;1726464;80;21440;-59
2022/07/03 07:32:27;;;;;;;4.97;2.85;;;;;;;31.55;29.23;99995.58;1733851;80;21934;-59
2022/07/03 07:34:54;;;;;;;5.25;3.27;;;;;;;31.62;28.91;99993.74;1730465;80;21636;-59
2022/07/03 07:37:20;;;;;;;4.53;3.15;;;;;;;31.65;29.25;99999.33;1736065;80;21595;-61
2022/07/03 07:39:47;;;;;;;8.08;3.08;;;;;;;31.58;29.56;99997.05;1728560;80;21589;-59
2022/07/03 07:42:13;;;;;;;12.18;3.17;;;;;;;31.72;29.64;99993.44;1692988;82;21549;-59
2022/07/03 07:44:40;;;;;;;9.23;3.00;;;;;;;31.93;29.58;99991.70;1726610;80;21998;-59
2022/07/03 07:47:07;;;;;;;7.70;3.58;;;;;;;32.05;30.01;99996.14;1683540;82;21120;-59
2022/07/03 07:49:34;;;;;;;5.42;3.10;;;;;;;32.15;29.70;99982.50;1725205;80;21495;-60
2022/07/03 07:52:00;;;;;;;3.92;3.17;;;;;;;32.22;29.46;99989.36;1687521;83;21468;-59
2022/07/03 07:54:27;;;;;;;8.90;3.83;;;;;;;32.40;29.06;99984.78;1718761;81;20991;-60
2022/07/03 07:56:54;;;;;;;5.70;3.33;;;;;;;32.51;29.09;99984.72;1695612;82;21542;-59
2022/07/03 07:59:20;;;;;;;8.78;3.65;;;;;;;32.58;29.20;99983.73;1722022;80;21443;-59
2022/07/03 08:07:16;;;;;;;5.17;3.50;;;;;;;32.70;28.29;99989.97;1737238;80;21587;-58
2022/07/03 08:09:43;;;;;;;5.27;3.73;;;;;;;32.70;28.24;99992.70;1729346;80;21957;-58
2022/07/03 08:12:10;;;;;;;7.35;3.27;;;;;;;32.84;28.20;99983.56;1727564;80;21408;-58
2022/07/03 08:14:37;;;;;;;10.05;3.62;;;;;;;32.89;28.01;99987.02;1733013;80;21452;-58
2022/07/03 08:17:06;;;;;;;8.05;3.85;;;;;;;32.98;28.08;99992.11;1738527;80;21528;-60
2022/07/03 08:19:33;;;;;;;7.35;3.40;;;;;;;33.10;28.11;99991.52;1688903;84;21479;-58
2022/07/03 08:22:01;;;;;;;8.85;3.52;;;;;;;33.16;27.73;99992.92;1721891;80;21827;-57
2022/07/03 08:24:27;;;;;;;4.53;3.47;;;;;;;33.19;27.58;99986.73;1722913;81;21546;-58
2022/07/03 08:26:55;;;;;;;5.25;3.37;;;;;;;33.21;27.84;99992.33;1728212;80;21692;-58
2022/07/03 08:29:21;;;;;;;4.20;3.60;;;;;;;33.41;27.88;99999.16;1721813;81;21890;-59
2022/07/03 08:31:48;;;;;;;9.38;3.27;;;;;;;33.46;27.67;99991.22;1729539;82;21451;-58
2022/07/03 08:34:14;;;;;;;11.00;3.60;;;;;;;33.53;27.86;99992.57;1692729;84;21858;-59
2022/07/03 08:36:41;;;;;;;5.17;3.65;;;;;;;33.61;27.63;99986.94;1680733;83;21546;-59
2022/07/03 08:39:09;;;;;;;8.05;3.55;;;;;;;33.72;27.70;99982.27;1690428;82;21557;-58
2022/07/03 08:41:39;;;;;;;7.97;3.70;;;;;;;33.86;27.98;99983.09;1730588;80;21062;-59
2022/07/03 08:44:11;;;;;;;8.55;3.45;;;;;;;34.01;27.80;99982.88;1692523;82;21551;-60
2022/07/03 08:46:39;;;;;;;7.55;3.70;;;;;;;34.14;26.79;99980.14;1731044;80;21757;-59
2022/07/03 08:49:08;;;;;;;4.22;3.65;;;;;;;34.05;26.91;99977.31;1734153;80;21549;-59
2022/07/03 08:51:36;;;;;;;9.33;3.98;;;;;;;34.01;27.45;99971.14;1676226;83;21600;-61
2022/07/03 08:54:04;;;;;;;5.03;3.47;;;;;;;34.02;27.94;99969.58;1708199;82;21593;-60
2022/07/03 08:56:31;;;;;;;5.83;3.50;;;;;;;34.03;27.60;99977.22;1684000;83;21546;-60
2022/07/03 08:58:58;;;;;;;5.27;3.40;;;;;;;34.09;27.30;99973.64;1688500;83;21811;-58
2022/07/03 09:01:25;;;;;;;4.25;3.30;;;;;;;34.11;27.06;99976.99;1688247;83;21010;-58
2022/07/03 09:03:52;;;;;;;6.10;3.60;;;;;;;34.16;26.79;99974.51;1691183;82;21590;-58
2022/07/03 09:06:18;;;;;;;4.97;3.20;;;;;;;34.25;26.72;99975.97;1692211;82;21568;-58
2022/07/03 09:08:46;;;;;;;;;;;;;;;34.29;26.73;99969.02;1698145;82;21571;-58
2022/07/03 09:11:12;;;;;;;5.80;3.03;;;;;;;34.20;27.64;99964.01;1688722;83;20505;-57
2022/07/03 09:13:41;;;;;;;7.92;3.30;;;;;;;34.25;27.71;99967.78;1694700;83;21038;-57
2022/07/03 09:16:15;;;;;;;3.30;2.98;;;;;;;34.23;27.14;99969.88;1698336;82;21571;-58
2022/07/03 09:18:44;;;;;;;6.90;4.05;;;;;;;34.27;27.17;99968.94;1693993;83;21536;-58
2022/07/03 09:21:11;;;;;;;5.12;3.70;;;;;;;34.29;27.13;99961.38;1704790;82;27048;-59
2022/07/03 09:23:43;;;;;;;5.53;3.12;;;;;;;34.35;26.91;99964.60;1699915;82;21845;-58
2022/07/03 09:26:17;;;;;;;5.75;3.30;;;;;;;34.39;26.86;99968.58;1697824;82;21449;-57
2022/07/03 09:28:52;;;;;;;3.90;3.58;;;;;;;34.32;26.71;99968.61;1697155;82;21534;-59
2022/07/03 09:31:25;;;;;;;4.58;3.33;;;;;;;34.35;26.48;99970.06;1703927;82;21587;-59
2022/07/03 09:33:59;;;;;;;3.37;3.08;;;;;;;34.37;26.37;99966.59;1703355;82;21536;-60
2022/07/03 09:36:45;;;;;;;3.92;3.37;;;;;;;34.43;26.01;99965.72;1710120;82;21810;-58
2022/07/03 09:39:29;;;;;;;3.87;3.47;;;;;;;34.39;25.75;99968.58;1705529;82;26220;-59
2022/07/03 09:42:05;;;;;;;5.85;3.15;;;;;;;34.33;26.14;99970.80;1707091;82;21499;-58
2022/07/03 09:44:41;;;;;;;6.87;3.60;;;;;;;34.30;25.71;99970.72;1703916;82;21660;-59
2022/07/03 09:47:19;;;;;;;5.33;3.30;;;;;;;34.28;25.93;99959.68;1699189;82;21526;-59
2022/07/03 09:49:54;;;;;;;5.67;3.15;;;;;;;34.18;25.70;99961.48;1697749;82;21904;-59
2022/07/03 09:52:37;;;;;;;4.62;3.05;;;;;;;34.05;26.08;99965.04;1690921;82;21543;-58
2022/07/03 09:55:15;;;;;;;3.70;3.40;;;;;;;34.02;26.93;99972.80;1693044;82;21697;-59
2022/07/03 09:57:53;;;;;;;;;;;;;;;34.03;26.31;99960.86;1693272;82;21472;-58
2022/07/03 10:00:23;;;;;;;4.03;3.47;;;;;;;33.93;26.76;99961.29;1689733;84;20422;-58
2022/07/03 10:03:09;;;;;;;3.37;3.08;;;;;;;33.72;27.17;99961.81;1690669;82;21815;-59
2022/07/03 10:05:41;;;;;;;5.60;3.22;;;;;;;33.62;27.46;99962.70;1675757;83;21657;-59
2022/07/03 10:08:17;;;;;;;5.08;2.92;;;;;;;33.69;27.30;99962.75;1683544;82;21618;-59
2022/07/03 10:10:46;;;;;;;4.08;3.05;;;;;;;33.72;26.98;99963.18;1694707;83;21455;-57
2022/07/03 10:13:13;;;;;;;4.87;3.33;;;;;;;33.78;26.95;99967.48;1695024;82;21471;-57
2022/07/03 10:15:41;;;;;;;5.08;3.05;;;;;;;33.74;27.87;99965.70;1693503;82;21801;-57
2022/07/03 10:18:10;;;;;;;5.08;2.95;;;;;;;33.65;27.60;99967.78;1684700;83;21618;-57
2022/07/03 10:20:47;;;;;;;4.12;3.02;;;;;;;33.54;27.70;99968.38;1688549;84;21569;-57
2022/07/03 10:23:19;;;;;;;6.80;3.13;;;;;;;33.49;28.50;99969.01;1689040;83;21527;-57
2022/07/03 10:25:46;;;;;;;2.90;2.58;;;;;;;33.58;28.43;99972.36;1690565;82;21460;-57
2022/07/03 10:28:15;;;;;;;4.95;2.75;;;;;;;33.59;27.63;99972.69;1690023;82;21484;-57
2022/07/03 10:30:46;;;;;;;3.45;2.85;;;;;;;33.56;27.44;99967.64;1700720;82;21579;-57
2022/07/03 10:33:13;;;;;;;3.45;2.90;;;;;;;33.65;26.86;99970.51;1687131;82;21518;-57
2022/07/03 10:35:51;;;;;;;3.62;2.60;;;;;;;33.68;26.23;99972.83;1685334;82;21578;-58
2022/07/03 10:38:29;;;;;;;2.92;2.72;;;;;;;33.66;26.51;99968.11;1686862;83;21579;-59
2022/07/03 10:47:27;;;;;;;3.20;3.00;;;;;;;33.60;28.69;99961.25;1692674;82;21558;-57
2022/07/03 10:50:02;;;;;;;5.75;3.20;;;;;;;33.63;28.62;99960.84;1670370;84;21507;-57
2022/07/03 10:52:29;;;;;;;4.75;3.10;;;;;;;33.62;28.75;99960.52;1680446;83;21460;-57
2022/07/03 10:54:56;;;;;;;3.87;2.83;;;;;;;33.53;28.68;99958.50;1694577;82;22068;-57
2022/07/03 10:57:23;;;;;;;5.45;3.20;;;;;;;33.50;29.09;99950.77;1686501;83;21625;-58
2022/07/03 10:59:56;;;;;;;9.95;5.67;;;;;;;33.39;29.15;99955.47;1695459;82;21440;-59
2022/07/03 11:02:39;;;;;;;9.68;4.92;;;;;;;33.26;29.03;99951.66;1689728;83;21567;-57
2022/07/03 11:05:20;;;;;;;7.25;4.55;;;;;;;32.92;29.77;99952.06;1695856;82;21044;-57
2022/07/03 11:07:55;;;;;;;5.67;3.80;;;;;;;32.71;30.57;99954.39;1688022;82;21835;-57
2022/07/03 11:10:29;;;;;;;11.38;4.40;;;;;;;32.50;31.01;99955.31;1701001;82;21512;-57
2022/07/03 11:13:12;;;;;;;10.35;4.60;;;;;;;32.33;31.45;99952.08;1688254;83;21439;-57
2022/07/03 11:15:46;;;;;;;9.28;4.47;;;;;;;32.17;31.76;99951.03;1688975;82;21618;-58
2022/07/03 11:18:27;;;;;;;6.10;4.67;;;;;;;32.06;31.99;99949.72;1703460;82;21666;-57
2022/07/03 11:21:18;;;;;;;7.17;4.50;;;;;;;31.87;32.99;99947.64;1692688;83;22130;-58
2022/07/03 11:24:09;;;;;;;9.73;4.62;;;;;;;31.84;34.15;99946.17;1697160;82;21598;-58
2022/07/03 11:26:35;;;;;;;5.83;4.47;;;;;;;31.75;34.91;99945.47;1682644;82;21019;-58
2022/07/03 11:29:02;;;;;;;7.35;4.33;;;;;;;31.66;35.38;99935.77;1697702;82;21594;-58
2022/07/03 11:31:28;;;;;;;7.00;5.28;;;;;;;31.58;35.51;99930.48;1626252;82;21447;-58
2022/07/03 11:34:00;;;;;;;12.23;6.53;;;;;;;31.60;35.99;99931.13;1696913;82;21802;-58
2022/07/03 11:36:30;;;;;;;9.63;5.40;;;;;;;31.59;36.80;99932.15;1687587;82;21449;-60
2022/07/03 11:39:23;;;;;;;17.32;8.83;;;;;;;31.55;36.96;99929.01;1698261;82;21454;-59
2022/07/03 11:41:49;;;;;;;11.30;9.88;;;;;;;31.47;36.81;99917.42;1681107;83;21103;-59
2022/07/03 11:44:18;;;;;;;15.93;12.13;;;;;;;31.42;37.84;99924.78;1664295;84;21584;-60
2022/07/03 11:46:50;;;;;;;28.50;18.07;;;;;;;31.44;37.61;99921.35;1654915;85;21582;-59
2022/07/03 11:49:20;;;;;;;20.40;10.80;;;;;;;31.44;37.93;99914.03;1679099;83;21071;-58
2022/07/03 11:51:59;;;;;;;16.77;9.05;;;;;;;31.41;37.78;99910.34;1684138;83;21588;-58
2022/07/03 11:54:30;;;;;;;8.95;5.33;;;;;;;31.34;37.67;99906.72;1674744;83;21513;-59
2022/07/03 11:56:57;;;;;;;6.75;4.65;;;;;;;31.34;37.44;99905.36;1629617;84;21533;-59
2022/07/03 11:59:23;;;;;;;6.20;4.10;;;;;;;31.26;36.87;99907.38;1680636;83;21880;-59
2022/07/03 12:01:50;;;;;;;8.53;3.58;;;;;;;31.22;37.07;99908.28;1657999;84;21585;-59